Time;durP1;ratioP1;P1;durP2;ratioP2;P2;SDS_P1;SDS_P2;PMS_P1;PMS_P2;Temp;Humidity;BMP_temperature;BMP_pressure;BME280_temperature;BME280_humidity;BME280_pressure;Samples;Min_cycle;Max_cycle;Signal;HPM_P1;HPM_P2
2023/10/12 00:01:57;;;;;;;;;;;;;;;-147.89;100.00;60788.38;4229639;28;19924;-62
2023/10/12 00:04:05;;;;;;;;;;;;;;;-147.89;100.00;60788.38;4230254;28;19924;-62
2023/10/12 00:06:08;;;;;;;;;;;;;;;-147.89;100.00;60788.38;4230082;28;20004;-63
2023/10/12 00:08:11;;;;;;;;;;;;;;;-147.89;100.00;60788.38;4230137;28;20393;-62
2023/10/12 00:12:24;;;;;;;;;;;;;;;-147.89;100.00;60788.38;4230035;28;19932;-64
2023/10/12 00:14:32;;;;;;;;;;;;;;;-147.89;100.00;60788.38;4230812;28;19924;-62
2023/10/12 00:16:35;;;;;;;;;;;;;;;-147.89;100.00;60788.38;4233052;28;19924;-63
2023/10/12 00:18:38;;;;;;;;;;;;;;;-147.89;100.00;60788.38;4232968;28;19924;-62
2023/10/12 00:20:40;;;;;;;;;;;;;;;-147.89;100.00;60788.38;4233351;28;19924;-62
2023/10/12 00:22:42;;;;;;;;;;;;;;;-147.89;100.00;60788.38;4232735;28;19924;-62
2023/10/12 00:24:46;;;;;;;;;;;;;;;-147.89;100.00;60788.38;4232716;28;20351;-62
2023/10/12 00:26:49;;;;;;;;;;;;;;;-147.89;100.00;60788.38;4233142;28;20000;-62
2023/10/12 00:28:51;;;;;;;;;;;;;;;-147.89;100.00;60788.38;4232855;28;20415;-62
2023/10/12 00:30:54;;;;;;;;;;;;;;;-147.89;100.00;60788.38;4232736;28;20360;-62
2023/10/12 00:32:57;;;;;;;;;;;;;;;-147.89;100.00;60788.38;4232644;28;20328;-62
2023/10/12 00:34:58;;;;;;;;;;;;;;;-147.89;100.00;60788.38;4232977;28;19931;-62
2023/10/12 00:37:03;;;;;;;;;;;;;;;-147.89;100.00;60788.38;4232968;28;20389;-62
2023/10/12 00:39:09;;;;;;;;;;;;;;;-147.89;100.00;60788.38;4214634;28;19927;-62
2023/10/12 00:41:14;;;;;;;;;;;;;;;-147.89;100.00;60788.38;4232980;28;19931;-62
2023/10/12 00:43:16;;;;;;;;;;;;;;;-147.89;100.00;60788.38;4232608;28;19939;-62
2023/10/12 00:45:27;;;;;;;;;;;;;;;-147.89;100.00;60788.38;4214280;28;20001;-62
2023/10/12 00:47:43;;;;;;;;;;;;;;;-147.89;100.00;60788.38;4216249;28;20357;-62
2023/10/12 00:49:48;;;;;;;;;;;;;;;-147.89;100.00;60788.38;4231218;28;19924;-61
2023/10/12 00:51:51;;;;;;;;;;;;;;;-147.89;100.00;60788.38;4232720;28;19935;-62
2023/10/12 00:53:56;;;;;;;;;;;;;;;-147.89;100.00;60788.38;4232470;28;19928;-62
2023/10/12 00:56:01;;;;;;;;;;;;;;;-147.89;100.00;60788.38;4232746;28;20331;-61
2023/10/12 00:58:08;;;;;;;;;;;;;;;-147.89;100.00;60788.38;4232219;28;20023;-62
2023/10/12 01:00:15;;;;;;;;;;;;;;;-147.89;100.00;60788.38;4231799;28;19923;-62
2023/10/12 01:02:21;;;;;;;;;;;;;;;-147.89;100.00;60788.38;4232425;28;20015;-62
2023/10/12 01:04:23;;;;;;;;;;;;;;;-147.89;100.00;60788.38;4232180;28;20353;-62
2023/10/12 01:08:30;;;;;;;;;;;;;;;-147.89;100.00;60788.38;4232019;28;19955;-63
2023/10/12 01:10:33;;;;;;;;;;;;;;;-147.89;100.00;60788.38;4232070;28;20026;-61
2023/10/12 01:12:34;;;;;;;;;;;;;;;-147.89;100.00;60788.38;4232363;28;19932;-62
2023/10/12 01:14:39;;;;;;;;;;;;;;;-147.89;100.00;60788.38;4231667;28;19924;-62
2023/10/12 01:19:05;;;;;;;;;;;;;;;-147.89;100.00;60788.38;4231959;28;19923;-62
2023/10/12 01:21:11;;;;;;;;;;;;;;;-147.89;100.00;60788.38;4211942;28;19977;-62
2023/10/12 01:23:12;;;;;;;;;;;;;;;-147.89;100.00;60788.38;4231964;28;19924;-62
2023/10/12 01:25:26;;;;;;;;;;;;;;;-147.89;100.00;60788.38;4231620;28;19977;-62
2023/10/12 01:27:29;;;;;;;;;;;;;;;-147.89;100.00;60788.38;4231807;28;19928;-59
2023/10/12 01:29:31;;;;;;;;;;;;;;;-147.89;100.00;60788.38;4231918;28;19980;-63
2023/10/12 01:31:35;;;;;;;;;;;;;;;-147.89;100.00;60788.38;4231843;28;19934;-62
2023/10/12 01:33:41;;;;;;;;;;;;;;;-147.89;100.00;60788.38;4231904;28;20300;-62
2023/10/12 01:35:49;;;;;;;;;;;;;;;-147.89;100.00;60788.38;4231784;28;20373;-62
2023/10/12 01:37:55;;;;;;;;;;;;;;;-147.89;100.00;60788.38;4231749;28;19927;-62
2023/10/12 01:42:06;;;;;;;;;;;;;;;-147.89;100.00;60788.38;4220526;28;19924;-63
2023/10/12 01:44:11;;;;;;;;;;;;;;;-147.89;100.00;60788.38;4213715;28;20022;-62
2023/10/12 01:46:14;;;;;;;;;;;;;;;-147.89;100.00;60788.38;4231484;28;20371;-62
2023/10/12 01:48:16;;;;;;;;;;;;;;;-147.89;100.00;60788.38;4231651;28;19924;-62
2023/10/12 01:50:18;;;;;;;;;;;;;;;-147.89;100.00;60788.38;4231444;28;19927;-63
2023/10/12 01:52:19;;;;;;;;;;;;;;;-147.89;100.00;60788.38;4231689;28;19927;-62
2023/10/12 01:54:24;;;;;;;;;;;;;;;-147.89;100.00;60788.38;4231620;28;20014;-62
2023/10/12 01:56:29;;;;;;;;;;;;;;;-147.89;100.00;60788.38;4231078;28;19924;-63
2023/10/12 01:58:35;;;;;;;;;;;;;;;-147.89;100.00;60788.38;4231347;28;20461;-63
2023/10/12 02:00:51;;;;;;;;;;;;;;;-147.89;100.00;60788.38;4231331;28;19923;-62
2023/10/12 02:05:23;;;;;;;;;;;;;;;-147.89;100.00;60788.38;4231575;28;19923;-62
2023/10/12 02:07:25;;;;;;;;;;;;;;;-147.89;100.00;60788.38;4231103;28;19923;-63
2023/10/12 02:09:26;;;;;;;;;;;;;;;-147.89;100.00;60788.38;4231370;28;19946;-62
2023/10/12 02:11:37;;;;;;;;;;;;;;;-147.89;100.00;60788.38;4231030;28;19989;-62
2023/10/12 02:13:41;;;;;;;;;;;;;;;-147.89;100.00;60788.38;4231198;28;19930;-62
2023/10/12 02:15:43;;;;;;;;;;;;;;;-147.89;100.00;60788.38;4231284;28;19923;-62
2023/10/12 02:17:49;;;;;;;;;;;;;;;-147.89;100.00;60788.38;4230947;28;20027;-62
2023/10/12 02:19:52;;;;;;;;;;;;;;;-147.89;100.00;60788.38;4231455;28;19924;-62
2023/10/12 02:21:59;;;;;;;;;;;;;;;-147.89;100.00;60788.38;4231101;28;20360;-62
2023/10/12 02:28:37;;;;;;;;;;;;;;;-147.89;100.00;60788.38;4229972;28;19976;-62
2023/10/12 02:30:39;;;;;;;;;;;;;;;-147.89;100.00;60788.38;4231171;28;20309;-62
2023/10/12 02:32:50;;;;;;;;;;;;;;;-147.89;100.00;60788.38;4230661;28;19982;-62
2023/10/12 02:34:55;;;;;;;;;;;;;;;-147.89;100.00;60788.38;4231042;28;20010;-63
2023/10/12 02:39:20;;;;;;;;;;;;;;;-147.89;100.00;60788.38;4230840;28;19941;-62
2023/10/12 02:41:24;;;;;;;;;;;;;;;-147.89;100.00;60788.38;4230605;28;19968;-62
2023/10/12 02:43:27;;;;;;;;;;;;;;;-147.89;100.00;60788.38;4230645;28;20271;-63
2023/10/12 02:45:29;;;;;;;;;;;;;;;-147.89;100.00;60788.38;4230863;28;19924;-62
2023/10/12 02:47:30;;;;;;;;;;;;;;;-147.89;100.00;60788.38;4230555;28;19924;-62
2023/10/12 02:49:39;;;;;;;;;;;;;;;-147.89;100.00;60788.38;4230707;28;19924;-63
2023/10/12 02:51:40;;;;;;;;;;;;;;;-147.89;100.00;60788.38;4230777;28;19935;-61
2023/10/12 02:53:44;;;;;;;;;;;;;;;-147.89;100.00;60788.38;4212546;28;20023;-63
2023/10/12 02:55:49;;;;;;;;;;;;;;;-147.89;100.00;60788.38;4230541;28;19945;-62
2023/10/12 02:57:55;;;;;;;;;;;;;;;-147.89;100.00;60788.38;4230532;28;20389;-62
2023/10/12 03:00:14;;;;;;;;;;;;;;;-147.89;100.00;60788.38;4230397;28;19955;-62
2023/10/12 03:02:22;;;;;;;;;;;;;;;-147.89;100.00;60788.38;4230720;28;19928;-63
2023/10/12 03:04:24;;;;;;;;;;;;;;;-147.89;100.00;60788.38;4227289;28;19931;-62
2023/10/12 03:06:32;;;;;;;;;;;;;;;-147.89;100.00;60788.38;4230746;28;20075;-62
2023/10/12 03:08:52;;;;;;;;;;;;;;;-147.89;100.00;60788.38;4230399;28;19931;-62
2023/10/12 03:13:04;;;;;;;;;;;;;;;-147.89;100.00;60788.38;4230380;28;20301;-62
2023/10/12 03:15:15;;;;;;;;;;;;;;;-147.89;100.00;60788.38;4230283;28;20332;-62
2023/10/12 03:17:20;;;;;;;;;;;;;;;-147.89;100.00;60788.38;4230614;28;19927;-62
2023/10/12 03:19:25;;;;;;;;;;;;;;;-147.89;100.00;60788.38;4230170;28;20341;-62
2023/10/12 03:21:27;;;;;;;;;;;;;;;-147.89;100.00;60788.38;4230526;28;19924;-62
2023/10/12 03:23:33;;;;;;;;;;;;;;;-147.89;100.00;60788.38;4229937;28;20397;-60
2023/10/12 03:25:43;;;;;;;;;;;;;;;-147.89;100.00;60788.38;4230537;28;20355;-62
2023/10/12 03:27:53;;;;;;;;;;;;;;;-147.89;100.00;60788.38;4230463;28;19962;-62
2023/10/12 03:30:06;;;;;;;;;;;;;;;-147.89;100.00;60788.38;4230259;28;19924;-62
2023/10/12 03:32:07;;;;;;;;;;;;;;;-147.89;100.00;60788.38;4213604;28;19928;-62
2023/10/12 03:34:16;;;;;;;;;;;;;;;-147.89;100.00;60788.38;4221640;28;20432;-61
2023/10/12 03:36:32;;;;;;;;;;;;;;;-147.89;100.00;60788.38;4230466;28;19955;-62
2023/10/12 03:38:35;;;;;;;;;;;;;;;-147.89;100.00;60788.38;4229581;28;19931;-62
2023/10/12 03:40:51;;;;;;;;;;;;;;;-147.89;100.00;60788.38;4230378;28;19924;-62
2023/10/12 03:42:55;;;;;;;;;;;;;;;-147.89;100.00;60788.38;4230504;28;19962;-62
2023/10/12 03:45:08;;;;;;;;;;;;;;;-147.89;100.00;60788.38;4230167;28;20293;-62
2023/10/12 03:49:24;;;;;;;;;;;;;;;-147.89;100.00;60788.38;4230706;28;19934;-62
2023/10/12 03:51:44;;;;;;;;;;;;;;;-147.89;100.00;60788.38;4223568;28;20353;-62
2023/10/12 03:53:45;;;;;;;;;;;;;;;-147.89;100.00;60788.38;4233233;28;19927;-61
2023/10/12 03:55:49;;;;;;;;;;;;;;;-147.89;100.00;60788.38;4233279;28;20014;-61
2023/10/12 03:58:05;;;;;;;;;;;;;;;-147.89;100.00;60788.38;4233600;28;20399;-62
2023/10/12 04:02:16;;;;;;;;;;;;;;;-147.89;100.00;60788.38;4233290;28;20389;-62
2023/10/12 04:04:34;;;;;;;;;;;;;;;-147.89;100.00;60788.38;4233448;28;19930;-61
2023/10/12 04:07:06;;;;;;;;;;;;;;;-147.89;100.00;60788.38;4231283;28;19928;-62
2023/10/12 04:09:14;;;;;;;;;;;;;;;-147.89;100.00;60788.38;4233579;28;19924;-62
2023/10/12 04:13:55;;;;;;;;;;;;;;;-147.89;100.00;60788.38;4233459;28;20400;-62
2023/10/12 04:18:07;;;;;;;;;;;;;;;-147.89;100.00;60788.38;4233197;28;20393;-62
2023/10/12 04:20:17;;;;;;;;;;;;;;;-147.89;100.00;60788.38;4232798;28;19930;-61
2023/10/12 04:22:25;;;;;;;;;;;;;;;-147.89;100.00;60788.38;4232783;28;20312;-62
2023/10/12 04:24:42;;;;;;;;;;;;;;;-147.89;100.00;60788.38;4232811;28;20396;-62
2023/10/12 04:27:01;;;;;;;;;;;;;;;-147.89;100.00;60788.38;4232888;28;19924;-61
2023/10/12 04:31:20;;;;;;;;;;;;;;;-147.89;100.00;60788.38;4225801;28;19931;-62
2023/10/12 04:33:27;;;;;;;;;;;;;;;-147.89;100.00;60788.38;4232977;28;19947;-62
2023/10/12 04:35:52;;;;;;;;;;;;;;;-147.89;100.00;60788.38;4232755;28;19923;-62
2023/10/12 04:37:55;;;;;;;;;;;;;;;-147.89;100.00;60788.38;4232290;28;19970;-62
2023/10/12 04:39:57;;;;;;;;;;;;;;;-147.89;100.00;60788.38;4232961;28;20434;-62
2023/10/12 04:42:20;;;;;;;;;;;;;;;-147.89;100.00;60788.38;4215395;28;19924;-62
2023/10/12 04:46:38;;;;;;;;;;;;;;;-147.89;100.00;60788.38;4232814;28;19923;-62
2023/10/12 04:48:46;;;;;;;;;;;;;;;-147.89;100.00;60788.38;4232672;28;19924;-62
2023/10/12 04:50:59;;;;;;;;;;;;;;;-147.89;100.00;60788.38;4232168;28;20014;-62
2023/10/12 04:53:07;;;;;;;;;;;;;;;-147.89;100.00;60788.38;4232566;28;20331;-62
2023/10/12 04:55:20;;;;;;;;;;;;;;;-147.89;100.00;60788.38;4232912;28;20364;-61
2023/10/12 04:57:26;;;;;;;;;;;;;;;-147.89;100.00;60788.38;4232488;28;19935;-62
2023/10/12 04:59:42;;;;;;;;;;;;;;;-147.89;100.00;60788.38;4232562;28;19923;-62
2023/10/12 05:06:09;;;;;;;;;;;;;;;-147.89;100.00;60788.38;4232065;28;20385;-62
2023/10/12 05:08:11;;;;;;;;;;;;;;;-147.89;100.00;60788.38;4232058;28;20018;-62
2023/10/12 05:10:15;;;;;;;;;;;;;;;-147.89;100.00;60788.38;4232521;28;20027;-62
2023/10/12 05:12:17;;;;;;;;;;;;;;;-147.89;100.00;60788.38;4232281;28;20002;-62
2023/10/12 05:14:19;;;;;;;;;;;;;;;-147.89;100.00;60788.38;4232241;28;19923;-60
2023/10/12 05:16:26;;;;;;;;;;;;;;;-147.89;100.00;60788.38;4232381;28;20376;-62
2023/10/12 05:18:28;;;;;;;;;;;;;;;-147.89;100.00;60788.38;4231815;28;19924;-62
2023/10/12 05:20:29;;;;;;;;;;;;;;;-147.89;100.00;60788.38;4231964;28;19924;-62
2023/10/12 05:22:31;;;;;;;;;;;;;;;-147.89;100.00;60788.38;4232095;28;19927;-62
2023/10/12 05:24:33;;;;;;;;;;;;;;;-147.89;100.00;60788.38;4231871;28;20388;-62
2023/10/12 05:26:35;;;;;;;;;;;;;;;-147.89;100.00;60788.38;4232355;28;20400;-62
2023/10/12 05:28:44;;;;;;;;;;;;;;;-147.89;100.00;60788.38;4231996;28;19955;-62
2023/10/12 05:30:55;;;;;;;;;;;;;;;-147.89;100.00;60788.38;4231972;28;19989;-62
2023/10/12 05:33:04;;;;;;;;;;;;;;;-147.89;100.00;60788.38;4231683;28;20007;-62
2023/10/12 05:35:06;;;;;;;;;;;;;;;-147.89;100.00;60788.38;4231665;28;20457;-63
2023/10/12 05:39:16;;;;;;;;;;;;;;;-147.89;100.00;60788.38;4231758;28;19934;-61
2023/10/12 05:41:34;;;;;;;;;;;;;;;-147.89;100.00;60788.38;4232141;28;19924;-61
2023/10/12 05:43:38;;;;;;;;;;;;;;;-147.89;100.00;60788.38;4231603;28;19924;-61
2023/10/12 05:45:44;;;;;;;;;;;;;;;-147.89;100.00;60788.38;4231885;28;19931;-61
2023/10/12 05:47:51;;;;;;;;;;;;;;;-147.89;100.00;60788.38;4231948;28;19930;-62
2023/10/12 05:49:52;;;;;;;;;;;;;;;-147.89;100.00;60788.38;4231630;28;19934;-61
2023/10/12 05:51:54;;;;;;;;;;;;;;;-147.89;100.00;60788.38;4213528;28;19931;-62
2023/10/12 05:54:02;;;;;;;;;;;;;;;-147.89;100.00;60788.38;4231431;28;19927;-61
2023/10/12 05:56:05;;;;;;;;;;;;;;;-147.89;100.00;60788.38;4231680;28;20409;-62
2023/10/12 05:58:11;;;;;;;;;;;;;;;-147.89;100.00;60788.38;4231409;28;20392;-61
2023/10/12 06:00:18;;;;;;;;;;;;;;;-147.89;100.00;60788.38;4228064;28;19946;-62
2023/10/12 06:02:21;;;;;;;;;;;;;;;-147.89;100.00;60788.38;4231844;28;19928;-62
2023/10/12 06:04:23;;;;;;;;;;;;;;;-147.89;100.00;60788.38;4231192;28;19984;-61
2023/10/12 06:06:25;;;;;;;;;;;;;;;-147.89;100.00;60788.38;4231569;28;20291;-62
2023/10/12 06:08:28;;;;;;;;;;;;;;;-147.89;100.00;60788.38;4231308;28;19930;-62
2023/10/12 06:10:30;;;;;;;;;;;;;;;-147.89;100.00;60788.38;4231233;28;20014;-62
2023/10/12 06:12:31;;;;;;;;;;;;;;;-147.89;100.00;60788.38;4230738;28;19928;-62
2023/10/12 06:14:33;;;;;;;;;;;;;;;-147.89;100.00;60788.38;4231170;28;19932;-62
2023/10/12 06:16:41;;;;;;;;;;;;;;;-147.89;100.00;60788.38;4231355;28;19924;-61
2023/10/12 06:18:46;;;;;;;;;;;;;;;-147.89;100.00;60788.38;4230969;28;20389;-62
2023/10/12 06:20:58;;;;;;;;;;;;;;;-147.89;100.00;60788.38;4230602;28;20320;-62
2023/10/12 06:23:05;;;;;;;;;;;;;;;-147.89;100.00;60788.38;4231193;28;19931;-61
2023/10/12 06:25:10;;;;;;;;;;;;;;;-147.89;100.00;60788.38;4230978;28;20388;-62
2023/10/12 06:29:29;;;;;;;;;;;;;;;-147.89;100.00;60788.38;4230958;28;19928;-62
2023/10/12 06:31:30;;;;;;;;;;;;;;;-147.89;100.00;60788.38;4230819;28;20017;-62
2023/10/12 06:33:33;;;;;;;;;;;;;;;-147.89;100.00;60788.38;4230742;28;19924;-62
2023/10/12 06:35:35;;;;;;;;;;;;;;;-147.89;100.00;60788.38;4231026;28;19924;-62
2023/10/12 06:37:59;;;;;;;;;;;;;;;-147.89;100.00;60788.38;4231057;28;19928;-61
2023/10/12 06:42:27;;;;;;;;;;;;;;;-147.89;100.00;60788.38;4154494;28;20290;-61
2023/10/12 06:44:33;;;;;;;;;;;;;;;-147.89;100.00;60788.38;4162419;28;19973;-61
2023/10/12 06:46:43;;;;;;;;;;;;;;;-147.89;100.00;60788.38;4161648;28;19959;-61
2023/10/12 06:48:46;;;;;;;;;;;;;;;-147.89;100.00;60788.38;4162302;28;20383;-62
2023/10/12 06:50:53;;;;;;;;;;;;;;;-147.89;100.00;60788.38;4145514;28;20025;-61
2023/10/12 06:52:57;;;;;;;;;;;;;;;-147.89;100.00;60788.38;4162310;28;19925;-61
2023/10/12 06:54:59;;;;;;;;;;;;;;;-147.89;100.00;60788.38;4162086;28;20442;-62
2023/10/12 06:59:21;;;;;;;;;;;;;;;-147.89;100.00;60788.38;4162204;28;20011;-61
2023/10/12 07:01:27;;;;;;;;;;;;;;;-147.89;100.00;60788.38;4161407;28;19944;-61
2023/10/12 07:03:28;;;;;;;;;;;;;;;-147.89;100.00;60788.38;4161939;28;20390;-62
2023/10/12 07:05:33;;;;;;;;;;;;;;;-147.89;100.00;60788.38;4161876;28;20068;-62
2023/10/12 07:07:41;;;;;;;;;;;;;;;-147.89;100.00;60788.38;4161898;28;20016;-60
2023/10/12 07:09:44;;;;;;;;;;;;;;;-147.89;100.00;60788.38;4162036;28;20307;-61
2023/10/12 07:11:46;;;;;;;;;;;;;;;-147.89;100.00;60788.38;4161589;28;19929;-61
2023/10/12 07:13:49;;;;;;;;;;;;;;;-147.89;100.00;60788.38;4161748;28;19925;-60
2023/10/12 07:15:51;;;;;;;;;;;;;;;-147.89;100.00;60788.38;4161538;28;19936;-60
2023/10/12 07:17:53;;;;;;;;;;;;;;;-147.89;100.00;60788.38;4161643;28;20023;-60
2023/10/12 07:19:54;;;;;;;;;;;;;;;-147.89;100.00;60788.38;4191712;28;20038;-61
2023/10/12 07:22:01;;;;;;;;;;;;;;;-147.89;100.00;60788.38;4223220;28;19931;-61
2023/10/12 07:24:07;;;;;;;;;;;;;;;-147.89;100.00;60788.38;4229914;28;19928;-62
2023/10/12 07:26:12;;;;;;;;;;;;;;;-147.89;100.00;60788.38;4230240;28;20049;-61
2023/10/12 07:28:32;;;;;;;;;;;;;;;-147.89;100.00;60788.38;4230234;28;19928;-62
2023/10/12 07:30:36;;;;;;;;;;;;;;;-147.89;100.00;60788.38;4230108;28;19936;-62
2023/10/12 07:32:56;;;;;;;;;;;;;;;-147.89;100.00;60788.38;4230351;28;19924;-62
2023/10/12 07:34:58;;;;;;;;;;;;;;;-147.89;100.00;60788.38;4230292;28;19923;-61
2023/10/12 07:37:00;;;;;;;;;;;;;;;-147.89;100.00;60788.38;4230058;28;19924;-62
2023/10/12 07:39:20;;;;;;;;;;;;;;;-147.89;100.00;60788.38;4230226;28;19930;-61
2023/10/12 07:41:41;;;;;;;;;;;;;;;-147.89;100.00;60788.38;4230251;28;19969;-62
2023/10/12 07:43:42;;;;;;;;;;;;;;;-147.89;100.00;60788.38;4230318;28;20031;-62
2023/10/12 07:45:50;;;;;;;;;;;;;;;-147.89;100.00;60788.38;4230024;28;20004;-62
2023/10/12 07:48:01;;;;;;;;;;;;;;;-147.89;100.00;60788.38;4229855;28;20373;-61
2023/10/12 07:50:14;;;;;;;;;;;;;;;-147.89;100.00;60788.38;4230479;28;19984;-62
2023/10/12 07:54:46;;;;;;;;;;;;;;;-147.89;100.00;60788.38;4230062;28;20038;-61
2023/10/12 07:56:40;;;;;;;;;;;;;;;-147.89;100.00;60788.38;4229914;28;19969;-61
2023/10/12 07:58:57;;;;;;;;;;;;;;;-147.89;100.00;60788.38;4229955;28;19924;-62
2023/10/12 08:03:19;;;;;;;;;;;;;;;-147.89;100.00;60788.38;4230002;28;20432;-62
2023/10/12 08:07:26;;;;;;;;;;;;;;;-147.89;100.00;60788.38;4229830;28;19924;-62
2023/10/12 08:11:31;;;;;;;;;;;;;;;-147.89;100.00;60788.38;4229884;28;19969;-61
2023/10/12 08:13:39;;;;;;;;;;;;;;;-147.89;100.00;60788.38;4229396;28;19924;-62
2023/10/12 08:15:55;;;;;;;;;;;;;;;-147.89;100.00;60788.38;4229940;28;19924;-62
2023/10/12 08:18:13;;;;;;;;;;;;;;;-147.89;100.00;60788.38;4229531;28;19932;-61
2023/10/12 08:22:36;;;;;;;;;;;;;;;-147.89;100.00;60788.38;4229857;28;19934;-62
2023/10/12 08:24:39;;;;;;;;;;;;;;;-147.89;100.00;60788.38;4229464;28;20463;-62
2023/10/12 08:28:55;;;;;;;;;;;;;;;-147.89;100.00;60788.38;4229390;28;20006;-62
2023/10/12 08:31:00;;;;;;;;;;;;;;;-147.89;100.00;60788.38;4229897;28;19931;-62
2023/10/12 08:33:14;;;;;;;;;;;;;;;-147.89;100.00;60788.38;4229777;28;19928;-61
2023/10/12 08:37:36;;;;;;;;;;;;;;;-147.89;100.00;60788.38;4233046;28;20011;-62
2023/10/12 08:39:48;;;;;;;;;;;;;;;-147.89;100.00;60788.38;4232904;28;19924;-62
2023/10/12 08:42:08;;;;;;;;;;;;;;;-147.89;100.00;60788.38;4232666;28;20007;-61
2023/10/12 08:44:19;;;;;;;;;;;;;;;-147.89;100.00;60788.38;4232521;28;20031;-62
2023/10/12 08:48:54;;;;;;;;;;;;;;;-147.89;100.00;60788.38;4232718;28;19923;-62
2023/10/12 08:51:09;;;;;;;;;;;;;;;-147.89;100.00;60788.38;4232699;28;19924;-60
2023/10/12 08:53:13;;;;;;;;;;;;;;;-147.89;100.00;60788.38;4232598;28;19938;-60
2023/10/12 08:55:14;;;;;;;;;;;;;;;-147.89;100.00;60788.38;4232317;28;19957;-61
2023/10/12 08:57:32;;;;;;;;;;;;;;;-147.89;100.00;60788.38;4232247;28;19988;-61
2023/10/12 08:59:38;;;;;;;;;;;;;;;-147.89;100.00;60788.38;4214336;28;20675;-61
2023/10/12 09:01:42;;;;;;;;;;;;;;;-147.89;100.00;60788.38;4232559;28;19977;-62
2023/10/12 09:03:44;;;;;;;;;;;;;;;-147.89;100.00;60788.38;4232468;28;19939;-62
2023/10/12 09:05:51;;;;;;;;;;;;;;;-147.89;100.00;60788.38;4232283;28;20301;-62
2023/10/12 09:08:39;;;;;;;;;;;;;;;-147.89;100.00;60788.38;4222222;27;19923;-65
2023/10/12 09:10:48;;;;;;;;;;;;;;;-147.89;100.00;60788.38;4208761;28;19924;-60
2023/10/12 09:12:40;;;;;;;;;;;;;;;-147.89;100.00;60788.38;4222455;28;19971;-67
2023/10/12 09:14:45;;;;;;;;;;;;;;;-147.89;100.00;60788.38;4223443;28;19930;-61
2023/10/12 09:16:53;;;;;;;;;;;;;;;-147.89;100.00;60788.38;4224780;28;19973;-62
2023/10/12 09:18:59;;;;;;;;;;;;;;;-147.89;100.00;60788.38;4228608;28;19967;-61
2023/10/12 09:23:12;;;;;;;;;;;;;;;-147.89;100.00;60788.38;4231321;28;19963;-66
2023/10/12 09:25:49;;;;;;;;;;;;;;;-147.89;100.00;60788.38;4213436;28;19932;-63
2023/10/12 09:27:37;;;;;;;;;;;;;;;-147.89;100.00;60788.38;4220439;28;19999;-59
2023/10/12 09:29:57;;;;;;;;;;;;;;;-147.89;100.00;60788.38;4230312;28;19924;-63
2023/10/12 09:36:55;;;;;;;;;;;;;;;-147.89;100.00;60788.38;4195101;28;19924;-58
2023/10/12 09:39:02;;;;;;;;;;;;;;;-147.89;100.00;60788.38;4195499;28;19967;-59
2023/10/12 09:41:08;;;;;;;;;;;;;;;-147.89;100.00;60788.38;4194902;28;19925;-58
2023/10/12 09:43:14;;;;;;;;;;;;;;;-147.89;100.00;60788.38;4195100;28;20437;-59
2023/10/12 09:45:19;;;;;;;;;;;;;;;-147.89;100.00;60788.38;4195273;28;20023;-59
2023/10/12 09:47:53;;;;;;;;;;;;;;;-147.89;100.00;60788.38;4193477;28;20027;-59
2023/10/12 09:49:56;;;;;;;;;;;;;;;-147.89;100.00;60788.38;4195509;28;20378;-59
2023/10/12 09:51:59;;;;;;;;;;;;;;;-147.89;100.00;60788.38;4195410;28;19924;-59
2023/10/12 09:54:15;;;;;;;;;;;;;;;-147.89;100.00;60788.38;4193640;28;19929;-60
2023/10/12 09:56:19;;;;;;;;;;;;;;;-147.89;100.00;60788.38;4194567;28;19978;-60
2023/10/12 09:58:24;;;;;;;;;;;;;;;-147.89;100.00;60788.38;4194847;28;20026;-61
2023/10/12 10:00:53;;;;;;;;;;;;;;;-147.89;100.00;60788.38;4194788;28;19924;-60
2023/10/12 10:02:55;;;;;;;;;;;;;;;-147.89;100.00;60788.38;4194450;28;19924;-59
2023/10/12 10:05:01;;;;;;;;;;;;;;;-147.89;100.00;60788.38;4194455;28;20283;-59
2023/10/12 10:07:25;;;;;;;;;;;;;;;-147.89;100.00;60788.38;4196964;28;19962;-60
2023/10/12 10:09:37;;;;;;;;;;;;;;;-147.89;100.00;60788.38;4223259;28;20006;-60
2023/10/12 10:11:40;;;;;;;;;;;;;;;-147.89;100.00;60788.38;4230208;28;19924;-59
2023/10/12 10:13:49;;;;;;;;;;;;;;;-147.89;100.00;60788.38;4230278;28;19924;-59
2023/10/12 10:15:59;;;;;;;;;;;;;;;-147.89;100.00;60788.38;4230421;28;19927;-59
2023/10/12 10:18:01;;;;;;;;;;;;;;;-147.89;100.00;60788.38;4220740;28;19928;-59
2023/10/12 10:20:17;;;;;;;;;;;;;;;-147.89;100.00;60788.38;4229561;28;19928;-60
2023/10/12 10:22:21;;;;;;;;;;;;;;;-147.89;100.00;60788.38;4229896;28;19930;-59
2023/10/12 10:24:25;;;;;;;;;;;;;;;-147.89;100.00;60788.38;4229111;28;20004;-59
2023/10/12 10:26:30;;;;;;;;;;;;;;;-147.89;100.00;60788.38;4230033;28;19931;-59
2023/10/12 10:28:32;;;;;;;;;;;;;;;-147.89;100.00;60788.38;4229629;28;20011;-60
2023/10/12 10:30:41;;;;;;;;;;;;;;;-147.89;100.00;60788.38;4227574;28;19939;-59
2023/10/12 10:32:45;;;;;;;;;;;;;;;-147.89;100.00;60788.38;4229284;28;20305;-59
2023/10/12 10:34:46;;;;;;;;;;;;;;;-147.89;100.00;60788.38;4211802;28;19924;-60
2023/10/12 10:36:52;;;;;;;;;;;;;;;-147.89;100.00;60788.38;4229818;28;19924;-59
2023/10/12 10:38:54;;;;;;;;;;;;;;;-147.89;100.00;60788.38;4229263;28;19928;-63
2023/10/12 10:41:18;;;;;;;;;;;;;;;-147.89;100.00;60788.38;4229900;28;20293;-65
2023/10/12 10:43:19;;;;;;;;;;;;;;;-147.89;100.00;60788.38;4229836;28;20362;-62
2023/10/12 10:45:23;;;;;;;;;;;;;;;-147.89;100.00;60788.38;4227434;28;19992;-61
2023/10/12 10:47:27;;;;;;;;;;;;;;;-147.89;100.00;60788.38;4225351;28;19928;-62
2023/10/12 10:49:32;;;;;;;;;;;;;;;-147.89;100.00;60788.38;4227770;28;19969;-61
2023/10/12 10:51:42;;;;;;;;;;;;;;;-147.89;100.00;60788.38;4228823;28;20019;-62
2023/10/12 10:53:52;;;;;;;;;;;;;;;-147.89;100.00;60788.38;4228906;28;20309;-62
2023/10/12 10:56:00;;;;;;;;;;;;;;;-147.89;100.00;60788.38;4230125;28;19992;-61
2023/10/12 10:58:01;;;;;;;;;;;;;;;-147.89;100.00;60788.38;4229169;28;19965;-61
2023/10/12 11:00:15;;;;;;;;;;;;;;;-147.89;100.00;60788.38;4227611;28;19934;-62
2023/10/12 11:02:20;;;;;;;;;;;;;;;-147.89;100.00;60788.38;4227000;28;19951;-62
2023/10/12 11:06:37;;;;;;;;;;;;;;;-147.89;100.00;60788.38;4229816;28;19945;-62
2023/10/12 11:08:40;;;;;;;;;;;;;;;-147.89;100.00;60788.38;4228755;28;19928;-62
2023/10/12 11:13:05;;;;;;;;;;;;;;;-147.89;100.00;60788.38;4229545;28;19931;-62
2023/10/12 11:15:11;;;;;;;;;;;;;;;-147.89;100.00;60788.38;4210587;28;20480;-61
2023/10/12 11:17:12;;;;;;;;;;;;;;;-147.89;100.00;60788.38;4211440;28;19928;-60
2023/10/12 11:19:19;;;;;;;;;;;;;;;-147.89;100.00;60788.38;4223572;28;19931;-59
2023/10/12 11:21:26;;;;;;;;;;;;;;;-147.89;100.00;60788.38;4223165;28;20038;-61
2023/10/12 11:23:27;;;;;;;;;;;;;;;-147.89;100.00;60788.38;4228208;28;19959;-61
2023/10/12 11:25:29;;;;;;;;;;;;;;;-147.89;100.00;60788.38;4229097;28;19947;-60
2023/10/12 11:27:31;;;;;;;;;;;;;;;-147.89;100.00;60788.38;4229158;28;20297;-59
2023/10/12 11:29:50;;;;;;;;;;;;;;;-147.89;100.00;60788.38;4229025;28;20335;-59
2023/10/12 11:32:08;;;;;;;;;;;;;;;-147.89;100.00;60788.38;4218793;28;19936;-59
2023/10/12 11:34:12;;;;;;;;;;;;;;;-147.89;100.00;60788.38;4225962;28;19924;-59
2023/10/12 11:36:18;;;;;;;;;;;;;;;-147.89;100.00;60788.38;4228194;28;19988;-58
2023/10/12 11:38:20;;;;;;;;;;;;;;;-147.89;100.00;60788.38;4228616;28;20400;-60
2023/10/12 11:40:29;;;;;;;;;;;;;;;-147.89;100.00;60788.38;4228519;28;20338;-59
2023/10/12 11:42:51;;;;;;;;;;;;;;;-147.89;100.00;60788.38;4228994;28;19988;-60
2023/10/12 11:45:06;;;;;;;;;;;;;;;-147.89;100.00;60788.38;4232677;28;19930;-60
2023/10/12 11:47:24;;;;;;;;;;;;;;;-147.89;100.00;60788.38;4234043;28;19959;-59
2023/10/12 11:49:26;;;;;;;;;;;;;;;-147.89;100.00;60788.38;4228528;28;20041;-62
2023/10/12 11:51:28;;;;;;;;;;;;;;;-147.89;100.00;60788.38;4228098;28;19934;-68
2023/10/12 11:53:30;;;;;;;;;;;;;;;-147.89;100.00;60788.38;4225798;28;19930;-67